createdAt,value
2023-03-19T00:00:29.484Z,3.64
2023-03-19T00:02:56.355Z,3.71
2023-03-19T00:05:23.433Z,3.75
2023-03-19T00:07:50.502Z,3.79
2023-03-19T00:10:19.046Z,3.92
2023-03-19T00:12:46.818Z,4.03
2023-03-19T00:15:15.478Z,4.08
2023-03-19T00:17:43.366Z,4.10
2023-03-19T00:20:11.610Z,4.02
2023-03-19T00:22:41.502Z,3.90
2023-03-19T00:25:09.708Z,3.87
2023-03-19T00:27:37.854Z,3.86
2023-03-19T00:30:06.139Z,3.88
2023-03-19T00:32:35.206Z,4.00
2023-03-19T00:35:03.087Z,4.09
2023-03-19T00:37:29.948Z,4.06
2023-03-19T00:40:01.807Z,4.01
2023-03-19T00:42:30.994Z,4.04
2023-03-19T00:44:57.596Z,4.09
2023-03-19T00:47:26.116Z,4.06
2023-03-19T00:49:53.615Z,3.99
2023-03-19T00:52:20.247Z,3.96
2023-03-19T00:54:47.282Z,4.03
2023-03-19T00:57:14.072Z,4.14
2023-03-19T00:59:40.902Z,4.17
2023-03-19T01:02:08.286Z,4.19
2023-03-19T01:04:35.391Z,4.19
2023-03-19T01:07:04.417Z,4.10
2023-03-19T01:09:35.284Z,4.00
2023-03-19T01:12:05.221Z,3.93
2023-03-19T01:14:33.743Z,3.88
2023-03-19T01:17:00.712Z,3.97
2023-03-19T01:19:28.115Z,4.10
2023-03-19T01:21:54.996Z,4.12
2023-03-19T01:24:22.804Z,4.12
2023-03-19T01:26:54.316Z,4.14
2023-03-19T01:29:36.262Z,4.12
2023-03-19T01:32:13.964Z,4.06
2023-03-19T01:35:09.591Z,3.97
2023-03-19T01:37:39.076Z,3.84
2023-03-19T01:40:07.013Z,3.82
2023-03-19T01:42:33.662Z,3.81
2023-03-19T01:45:41.890Z,3.70
2023-03-19T01:48:44.591Z,3.60
2023-03-19T01:51:16.779Z,3.51
2023-03-19T01:53:52.247Z,3.44
2023-03-19T01:57:05.961Z,3.31
2023-03-19T02:00:04.804Z,3.24
2023-03-19T02:02:45.222Z,3.23
2023-03-19T02:05:24.895Z,3.21
2023-03-19T02:07:57.814Z,3.11
2023-03-19T02:10:25.631Z,2.97
2023-03-19T02:12:52.875Z,2.88
2023-03-19T02:15:19.892Z,2.82
2023-03-19T02:17:47.135Z,2.74
2023-03-19T02:20:27.385Z,2.66
2023-03-19T02:23:00.392Z,2.68
2023-03-19T02:25:32.840Z,2.68
2023-03-19T02:28:02.314Z,2.59
2023-03-19T02:30:32.384Z,2.44
2023-03-19T02:33:04.319Z,2.30
2023-03-19T02:35:32.590Z,2.24
2023-03-19T02:38:00.517Z,2.16
2023-03-19T02:40:30.309Z,2.11
2023-03-19T02:42:58.274Z,2.14
2023-03-19T02:45:29.280Z,2.11
2023-03-19T02:47:56.334Z,1.96
2023-03-19T02:50:23.111Z,1.87
2023-03-19T02:52:50.094Z,1.83
2023-03-19T02:55:17.854Z,1.78
2023-03-19T02:57:45.130Z,1.72
2023-03-19T03:00:18.192Z,1.68
2023-03-19T03:02:45.329Z,1.75
2023-03-19T03:05:12.992Z,1.80
2023-03-19T03:07:44.450Z,1.75
2023-03-19T03:10:11.466Z,1.70
2023-03-19T03:12:38.287Z,1.66
2023-03-19T03:15:08.574Z,1.67
2023-03-19T03:17:39.226Z,1.67
2023-03-19T03:20:10.823Z,1.70
2023-03-19T03:22:39.991Z,1.86
2023-03-19T03:25:07.118Z,1.95
2023-03-19T03:27:34.301Z,1.90
2023-03-19T03:30:01.117Z,1.86
2023-03-19T03:32:28.074Z,1.80
2023-03-19T03:34:54.865Z,1.75
2023-03-19T03:37:22.601Z,1.72
2023-03-19T03:39:49.257Z,1.69
2023-03-19T03:42:15.823Z,1.78
2023-03-19T03:44:43.080Z,1.87
2023-03-19T03:47:12.590Z,1.88
2023-03-19T03:49:40.963Z,1.86
2023-03-19T03:52:08.488Z,1.84
2023-03-19T03:54:35.164Z,1.84
2023-03-19T03:57:03.522Z,1.85
2023-03-19T03:59:37.097Z,1.86
2023-03-19T04:02:03.761Z,1.98
2023-03-19T04:04:30.477Z,2.09
2023-03-19T04:07:04.046Z,2.11
2023-03-19T04:09:40.590Z,2.07
2023-03-19T04:12:08.877Z,2.09
2023-03-19T04:14:41.556Z,2.10
2023-03-19T04:17:08.702Z,2.15
2023-03-19T04:19:35.697Z,2.18
2023-03-19T04:22:03.242Z,2.30
2023-03-19T04:24:32.586Z,2.44
2023-03-19T04:27:00.240Z,2.44
2023-03-19T04:29:27.662Z,2.40
2023-03-19T04:31:54.399Z,2.38
2023-03-19T04:34:21.055Z,2.33
2023-03-19T04:36:50.272Z,2.34
2023-03-19T04:39:17.556Z,2.36
2023-03-19T04:41:46.598Z,2.51
2023-03-19T04:44:41.559Z,2.67
2023-03-19T04:47:09.877Z,2.69
2023-03-19T04:49:48.273Z,2.66
2023-03-19T04:52:15.487Z,2.63
2023-03-19T04:54:44.000Z,2.66
2023-03-19T04:57:11.804Z,2.69
2023-03-19T04:59:42.145Z,2.75
2023-03-19T05:02:09.604Z,2.91
2023-03-19T05:04:37.210Z,3.09
2023-03-19T05:07:07.943Z,3.16
2023-03-19T05:09:35.787Z,3.16
2023-03-19T05:12:02.358Z,3.11
2023-03-19T05:14:34.669Z,3.07
2023-03-19T05:17:06.902Z,3.05
2023-03-19T05:19:52.248Z,3.10
2023-03-19T05:22:20.635Z,3.24
2023-03-19T05:24:47.520Z,3.36
2023-03-19T05:27:14.466Z,3.41
2023-03-19T05:29:47.574Z,3.43
2023-03-19T05:32:52.564Z,3.53
2023-03-19T05:35:27.191Z,3.61
2023-03-19T05:37:54.233Z,3.67
2023-03-19T05:40:22.670Z,3.68
2023-03-19T05:42:50.708Z,3.82
2023-03-19T05:45:21.906Z,3.95
2023-03-19T05:47:52.384Z,3.99
2023-03-19T05:50:19.239Z,4.03
2023-03-19T05:53:04.456Z,4.07
2023-03-19T05:55:32.326Z,4.14
2023-03-19T05:58:10.023Z,4.18
2023-03-19T06:00:38.396Z,4.22
2023-03-19T06:03:05.080Z,4.38
2023-03-19T06:05:43.245Z,4.51
2023-03-19T06:08:29.354Z,4.51
2023-03-19T06:11:06.305Z,4.53
2023-03-19T06:13:33.551Z,4.57
2023-03-19T06:16:06.048Z,4.65
2023-03-19T06:18:45.167Z,4.71
2023-03-19T06:21:12.616Z,4.76
2023-03-19T06:23:41.142Z,4.79
2023-03-19T06:26:16.678Z,4.82
2023-03-19T06:28:53.181Z,4.93
2023-03-19T06:31:19.984Z,4.98
2023-03-19T06:33:56.461Z,4.95
2023-03-19T06:36:26.426Z,4.98
2023-03-19T06:38:57.819Z,5.05
2023-03-19T06:41:25.184Z,5.11
2023-03-19T06:43:52.638Z,5.12
2023-03-19T06:46:19.335Z,5.10
2023-03-19T06:48:46.448Z,5.11
2023-03-19T06:51:19.747Z,5.23
2023-03-19T06:53:46.441Z,5.35
2023-03-19T06:56:12.997Z,5.42
2023-03-19T06:58:46.492Z,5.53
2023-03-19T07:01:13.659Z,5.64
2023-03-19T07:03:40.711Z,5.77
2023-03-19T07:06:07.274Z,5.91
2023-03-19T07:08:34.361Z,6.05
2023-03-19T07:11:05.484Z,6.16
2023-03-19T07:13:33.106Z,6.25
2023-03-19T07:16:00.318Z,6.30
2023-03-19T07:18:26.965Z,6.38
2023-03-19T07:20:54.809Z,6.40
2023-03-19T07:23:21.588Z,6.43
2023-03-19T07:25:48.402Z,6.46
2023-03-19T07:28:15.860Z,6.45
2023-03-19T07:30:43.561Z,6.42
2023-03-19T07:33:10.379Z,6.46
2023-03-19T07:35:37.270Z,6.53
2023-03-19T07:38:04.099Z,6.63
2023-03-19T07:40:35.022Z,6.71
2023-03-19T07:43:02.645Z,6.76
2023-03-19T07:45:30.674Z,6.80
2023-03-19T07:48:03.067Z,6.83
2023-03-19T07:50:30.672Z,6.88
2023-03-19T07:52:57.398Z,6.89
2023-03-19T07:55:24.032Z,6.90
2023-03-19T07:57:50.872Z,6.91
2023-03-19T08:00:22.009Z,6.90
2023-03-19T08:02:48.878Z,6.93
2023-03-19T08:05:16.243Z,6.95
2023-03-19T08:07:48.825Z,6.97
2023-03-19T08:10:15.742Z,6.99
2023-03-19T08:12:42.703Z,7.02
2023-03-19T08:15:15.343Z,7.03
2023-03-19T08:17:42.989Z,7.04
2023-03-19T08:20:11.460Z,7.06
2023-03-19T08:22:38.562Z,7.08
2023-03-19T08:25:06.868Z,7.04
2023-03-19T08:27:35.425Z,6.98
2023-03-19T08:30:06.877Z,7.02
2023-03-19T08:32:34.571Z,7.13
2023-03-19T08:35:05.510Z,7.17
2023-03-19T08:37:33.740Z,7.13
2023-03-19T08:40:00.605Z,7.10
2023-03-19T08:42:30.430Z,7.11
2023-03-19T08:44:58.250Z,7.16
2023-03-19T08:47:25.110Z,7.28
2023-03-19T08:49:52.888Z,7.47
2023-03-19T08:52:20.097Z,7.66
2023-03-19T08:54:46.970Z,7.86
2023-03-19T08:57:13.713Z,8.06
2023-03-19T08:59:40.762Z,8.33
2023-03-19T09:02:10.002Z,8.55
2023-03-19T09:06:14.356Z,8.71
2023-03-19T09:08:58.029Z,8.81
2023-03-19T09:11:26.801Z,8.83
2023-03-19T09:13:54.812Z,8.83
2023-03-19T09:16:21.962Z,8.86
2023-03-19T09:18:50.601Z,8.89
2023-03-19T09:21:17.875Z,8.82
2023-03-19T09:23:44.974Z,8.76
2023-03-19T09:26:15.116Z,8.79
2023-03-19T09:28:42.157Z,8.94
2023-03-19T09:31:11.005Z,9.10
2023-03-19T09:33:38.205Z,9.18
2023-03-19T09:36:05.413Z,9.33
2023-03-19T09:38:34.736Z,9.59
2023-03-19T09:41:06.929Z,9.91
2023-03-19T09:43:57.161Z,10.19
2023-03-19T09:46:28.893Z,10.47
2023-03-19T09:49:28.757Z,10.81
2023-03-19T09:52:02.931Z,11.01
2023-03-19T09:54:42.091Z,11.07
2023-03-19T09:57:09.341Z,11.14
2023-03-19T09:59:36.726Z,11.18
2023-03-19T10:02:21.273Z,11.22
2023-03-19T10:04:55.391Z,11.59
2023-03-19T10:07:32.040Z,12.32
2023-03-19T10:10:25.505Z,13.16
2023-03-19T10:12:57.327Z,14.30
2023-03-19T10:15:29.216Z,15.44
2023-03-19T10:18:17.346Z,16.28
2023-03-19T10:21:05.340Z,16.82
2023-03-19T10:23:39.385Z,17.42
2023-03-19T10:26:11.501Z,18.03
2023-03-19T10:28:41.679Z,18.60
2023-03-19T10:31:26.371Z,19.33
2023-03-19T10:34:18.908Z,20.19
2023-03-19T10:36:46.887Z,20.84
2023-03-19T10:39:18.600Z,21.13
2023-03-19T10:42:21.270Z,21.12
2023-03-19T10:44:58.867Z,21.17
2023-03-19T10:47:35.659Z,21.28
2023-03-19T10:50:02.883Z,21.48
2023-03-19T10:52:37.218Z,21.75
2023-03-19T10:55:20.632Z,22.17
2023-03-19T10:57:54.096Z,22.41
2023-03-19T11:00:26.483Z,22.51
2023-03-19T11:02:55.936Z,22.60
2023-03-19T11:05:24.700Z,23.01
2023-03-19T11:08:08.782Z,23.44
2023-03-19T11:10:39.466Z,23.88
2023-03-19T11:13:15.524Z,24.19
2023-03-19T11:15:48.269Z,24.13
2023-03-19T11:18:20.884Z,24.30
2023-03-19T11:20:59.120Z,24.54
2023-03-19T11:23:37.617Z,24.89
2023-03-19T11:26:04.602Z,24.94
2023-03-19T11:28:34.176Z,24.72
2023-03-19T11:31:13.150Z,24.76
2023-03-19T11:34:07.268Z,24.94
2023-03-19T11:37:02.942Z,25.02
2023-03-19T11:39:36.856Z,25.44
2023-03-19T11:42:26.503Z,25.48
2023-03-19T11:45:15.643Z,25.49
2023-03-19T11:48:00.846Z,25.87
2023-03-19T11:50:35.930Z,26.03
2023-03-19T11:53:08.872Z,26.31
2023-03-19T11:55:41.818Z,26.68
2023-03-19T11:58:57.090Z,26.96
2023-03-19T12:01:54.923Z,27.06
2023-03-19T12:04:28.085Z,27.26
2023-03-19T12:07:01.782Z,27.50
2023-03-19T12:09:35.569Z,27.54
2023-03-19T12:12:07.501Z,27.23
2023-03-19T12:14:51.365Z,27.16
2023-03-19T12:17:22.573Z,27.40
2023-03-19T12:20:00.577Z,27.67
2023-03-19T12:22:45.758Z,27.60
2023-03-19T12:25:19.103Z,27.31
2023-03-19T12:27:45.822Z,27.25
2023-03-19T12:30:27.560Z,27.58
2023-03-19T12:33:12.419Z,27.92
2023-03-19T12:35:41.422Z,28.02
2023-03-19T12:38:12.726Z,28.17
2023-03-19T12:40:52.146Z,28.46
2023-03-19T12:43:24.320Z,28.67
2023-03-19T12:45:55.671Z,28.83
2023-03-19T12:48:31.385Z,29.05
2023-03-19T12:51:03.014Z,29.16
2023-03-19T12:53:44.057Z,29.17
2023-03-19T12:56:45.373Z,29.10
2023-03-19T12:59:30.439Z,28.76
2023-03-19T13:02:09.950Z,28.37
2023-03-19T13:04:48.096Z,28.10
2023-03-19T13:07:20.876Z,28.05
2023-03-19T13:09:57.188Z,28.41
2023-03-19T13:12:31.638Z,28.34
2023-03-19T13:15:09.922Z,28.60
2023-03-19T13:17:43.203Z,28.42
2023-03-19T13:20:23.803Z,27.30
2023-03-19T13:22:56.152Z,25.99
2023-03-19T13:25:36.370Z,24.75
2023-03-19T13:28:03.069Z,23.50
2023-03-19T13:30:30.841Z,22.39
2023-03-19T13:33:05.708Z,21.02
2023-03-19T13:35:42.645Z,19.74
2023-03-19T13:38:20.551Z,18.67
2023-03-19T13:40:49.455Z,17.90
2023-03-19T13:43:29.122Z,17.21
2023-03-19T13:46:11.312Z,16.67
2023-03-19T13:48:44.960Z,16.20
2023-03-19T13:51:11.951Z,15.86
2023-03-19T13:53:41.902Z,15.55
2023-03-19T13:56:22.519Z,15.15
2023-03-19T13:59:14.130Z,14.66
2023-03-19T14:01:44.061Z,14.27
2023-03-19T14:04:21.939Z,13.99
2023-03-19T14:06:50.942Z,13.56
2023-03-19T14:09:38.840Z,13.20
2023-03-19T14:12:14.736Z,12.96
2023-03-19T14:14:57.994Z,12.81
2023-03-19T14:17:25.185Z,12.61
2023-03-19T14:19:53.127Z,12.36
2023-03-19T14:22:32.045Z,12.08
2023-03-19T14:25:17.968Z,11.82
2023-03-19T14:28:00.169Z,11.59
2023-03-19T14:30:33.465Z,11.42
2023-03-19T14:33:03.992Z,11.23
2023-03-19T14:35:33.214Z,11.10
2023-03-19T14:38:02.843Z,11.05
2023-03-19T14:40:39.061Z,10.94
2023-03-19T14:43:34.082Z,10.80
2023-03-19T14:46:06.746Z,10.72
2023-03-19T14:49:11.832Z,10.69
2023-03-19T14:51:57.260Z,10.60
2023-03-19T14:54:29.754Z,10.42
2023-03-19T14:56:57.205Z,10.35
2023-03-19T14:59:24.349Z,10.30
2023-03-19T15:01:52.551Z,10.26
2023-03-19T15:04:23.850Z,10.20
2023-03-19T15:06:57.050Z,10.12
2023-03-19T15:09:44.104Z,10.04
2023-03-19T15:12:33.018Z,10.00
2023-03-19T15:15:09.505Z,9.96
2023-03-19T15:17:49.220Z,9.89
2023-03-19T15:20:34.640Z,9.81
2023-03-19T15:23:16.362Z,9.73
2023-03-19T15:25:57.636Z,9.63
2023-03-19T15:28:30.029Z,9.56
2023-03-19T15:31:14.459Z,9.51
2023-03-19T15:33:50.372Z,9.46
2023-03-19T15:36:37.944Z,9.41
2023-03-19T15:39:07.079Z,9.35
2023-03-19T15:41:35.935Z,9.27
2023-03-19T15:44:05.429Z,9.19
2023-03-19T15:46:33.738Z,9.15
2023-03-19T15:49:38.452Z,9.09
2023-03-19T15:52:08.736Z,9.02
2023-03-19T15:54:37.292Z,8.95
2023-03-19T15:57:05.367Z,8.89
2023-03-19T15:59:32.600Z,8.83
2023-03-19T16:02:00.476Z,8.77
2023-03-19T16:04:29.646Z,8.72
2023-03-19T16:06:57.531Z,8.65
2023-03-19T16:09:31.300Z,8.58
2023-03-19T16:11:58.314Z,8.53
2023-03-19T16:14:40.332Z,8.49
2023-03-19T16:17:13.928Z,8.44
2023-03-19T16:19:55.455Z,8.42
2023-03-19T16:22:31.757Z,8.38
2023-03-19T16:24:59.038Z,8.34
2023-03-19T16:27:33.472Z,8.30
2023-03-19T16:30:13.748Z,8.25
2023-03-19T16:32:41.939Z,8.20
2023-03-19T16:35:16.039Z,8.15
2023-03-19T16:37:44.277Z,8.11
2023-03-19T16:40:11.600Z,8.07
2023-03-19T16:42:40.091Z,8.03
2023-03-19T16:45:25.428Z,7.98
2023-03-19T16:47:53.361Z,7.92
2023-03-19T16:50:24.032Z,7.88
2023-03-19T16:52:51.029Z,7.83
2023-03-19T16:55:19.361Z,7.78
2023-03-19T16:57:51.979Z,7.73
2023-03-19T17:00:19.835Z,7.69
2023-03-19T17:02:47.520Z,7.65
2023-03-19T17:05:15.682Z,7.62
2023-03-19T17:07:44.185Z,7.57
2023-03-19T17:10:15.492Z,7.53
2023-03-19T17:12:42.791Z,7.46
2023-03-19T17:15:29.905Z,7.42
2023-03-19T17:17:58.178Z,7.38
2023-03-19T17:20:31.347Z,7.36
2023-03-19T17:22:59.013Z,7.33
2023-03-19T17:25:27.189Z,7.31
2023-03-19T17:27:54.011Z,7.27
2023-03-19T17:30:21.091Z,7.24
2023-03-19T17:32:50.366Z,7.21
2023-03-19T17:35:20.889Z,7.19
2023-03-19T17:37:48.159Z,7.16
2023-03-19T17:40:28.520Z,7.13
2023-03-19T17:42:57.212Z,7.09
2023-03-19T17:45:27.082Z,7.07
2023-03-19T17:47:57.515Z,7.03
2023-03-19T17:50:28.906Z,7.00
2023-03-19T17:52:55.660Z,6.95
2023-03-19T17:55:28.872Z,6.90
2023-03-19T17:57:56.314Z,6.88
2023-03-19T18:00:23.727Z,6.86
2023-03-19T18:02:52.202Z,6.86
2023-03-19T18:05:21.199Z,6.85
2023-03-19T18:07:54.745Z,6.83
2023-03-19T18:10:26.985Z,6.80
2023-03-19T18:12:54.027Z,6.79
2023-03-19T18:15:23.125Z,6.77
2023-03-19T18:17:55.593Z,6.75
2023-03-19T18:20:24.820Z,6.72
2023-03-19T18:22:56.050Z,6.68
2023-03-19T18:25:25.545Z,6.65
2023-03-19T18:27:52.499Z,6.62
2023-03-19T18:30:22.395Z,6.58
2023-03-19T18:32:52.121Z,6.56
2023-03-19T18:35:21.273Z,6.54
2023-03-19T18:37:50.038Z,6.53
2023-03-19T18:40:21.776Z,6.50
2023-03-19T18:42:48.893Z,6.42
2023-03-19T18:45:16.759Z,6.31
2023-03-19T18:47:44.300Z,6.19
2023-03-19T18:50:19.069Z,6.09
2023-03-19T18:52:47.579Z,6.01
2023-03-19T18:55:14.449Z,5.94
2023-03-19T18:57:53.224Z,5.87
2023-03-19T19:00:26.144Z,5.78
2023-03-19T19:02:54.837Z,5.69
2023-03-19T19:05:23.673Z,5.62
2023-03-19T19:07:50.938Z,5.57
2023-03-19T19:10:18.025Z,5.53
2023-03-19T19:12:46.884Z,5.47
2023-03-19T19:15:24.932Z,5.42
2023-03-19T19:17:53.989Z,5.35
2023-03-19T19:20:23.755Z,5.27
2023-03-19T19:22:51.264Z,5.23
2023-03-19T19:25:22.918Z,5.17
2023-03-19T19:28:20.513Z,5.11
2023-03-19T19:30:48.689Z,5.06
2023-03-19T19:33:19.933Z,5.02
2023-03-19T19:35:46.576Z,4.99
2023-03-19T19:38:13.552Z,4.95
2023-03-19T19:40:44.450Z,4.91
2023-03-19T19:43:27.405Z,4.87
2023-03-19T19:45:54.882Z,4.84
2023-03-19T19:48:26.794Z,4.81
2023-03-19T19:50:54.567Z,4.87
2023-03-19T19:53:24.523Z,4.96
2023-03-19T19:55:54.193Z,4.93
2023-03-19T19:58:26.661Z,4.88
2023-03-19T20:01:03.287Z,4.83
2023-03-19T20:03:31.862Z,4.77
2023-03-19T20:05:59.597Z,4.71
2023-03-19T20:08:28.038Z,4.67
2023-03-19T20:10:55.460Z,4.61
2023-03-19T20:13:25.858Z,4.56
2023-03-19T20:15:57.425Z,4.50
2023-03-19T20:18:30.809Z,4.48
2023-03-19T20:20:57.714Z,4.55
2023-03-19T20:23:25.051Z,4.63
2023-03-19T20:25:52.020Z,4.62
2023-03-19T20:28:26.965Z,4.57
2023-03-19T20:30:54.934Z,4.51
2023-03-19T20:33:21.847Z,4.48
2023-03-19T20:35:50.255Z,4.45
2023-03-19T20:38:17.430Z,4.43
2023-03-19T20:40:55.003Z,4.40
2023-03-19T20:43:28.393Z,4.37
2023-03-19T20:45:57.045Z,4.34
2023-03-19T20:48:24.416Z,4.32
2023-03-19T20:50:51.726Z,4.42
2023-03-19T20:53:18.502Z,4.53
2023-03-19T20:55:47.327Z,4.55
2023-03-19T20:58:17.022Z,4.58
2023-03-19T21:00:44.177Z,4.59
2023-03-19T21:03:21.847Z,4.57
2023-03-19T21:05:51.219Z,4.52
2023-03-19T21:08:42.515Z,4.48
2023-03-19T21:11:17.217Z,4.40
2023-03-19T21:13:48.971Z,4.35
2023-03-19T21:16:25.513Z,4.32
2023-03-19T21:18:56.555Z,4.27
2023-03-19T21:24:07.550Z,4.46
2023-03-19T21:26:36.593Z,4.46
2023-03-19T21:29:06.660Z,4.49
2023-03-19T21:31:36.885Z,4.53
2023-03-19T21:34:05.704Z,4.55
2023-03-19T21:36:32.738Z,4.55
2023-03-19T21:39:01.528Z,4.52
2023-03-19T21:41:31.419Z,4.49
2023-03-19T21:44:14.117Z,4.46
2023-03-19T21:46:41.900Z,4.43
2023-03-19T21:49:10.657Z,4.40
2023-03-19T21:51:43.664Z,4.46
2023-03-19T21:54:11.006Z,4.54
2023-03-19T21:56:40.081Z,4.51
2023-03-19T21:59:16.148Z,4.48
2023-03-19T22:01:42.804Z,4.43
2023-03-19T22:04:09.757Z,4.32
2023-03-19T22:06:37.048Z,4.21
2023-03-19T22:09:04.125Z,4.09
2023-03-19T22:11:34.055Z,4.01
2023-03-19T22:14:11.837Z,4.08
2023-03-19T22:16:42.025Z,4.13
2023-03-19T22:19:17.140Z,4.10
2023-03-19T22:21:45.063Z,4.06
2023-03-19T22:24:12.115Z,4.02
2023-03-19T22:26:40.355Z,3.95
2023-03-19T22:29:18.777Z,3.90
2023-03-19T22:31:48.067Z,3.85
2023-03-19T22:34:16.242Z,3.81
2023-03-19T22:36:49.793Z,3.83
2023-03-19T22:39:16.932Z,3.94
2023-03-19T22:41:50.301Z,4.05
2023-03-19T22:44:30.762Z,4.07
2023-03-19T22:46:59.385Z,4.05
2023-03-19T22:49:27.675Z,4.01
2023-03-19T22:51:56.404Z,3.95
2023-03-19T22:54:23.689Z,3.91
2023-03-19T22:56:51.812Z,3.87
2023-03-19T22:59:22.423Z,3.88
2023-03-19T23:01:50.649Z,4.00
2023-03-19T23:04:23.707Z,4.10
2023-03-19T23:06:52.291Z,4.09
2023-03-19T23:09:30.329Z,4.08
2023-03-19T23:11:58.803Z,4.06
2023-03-19T23:14:30.645Z,3.98
2023-03-19T23:17:01.097Z,3.90
2023-03-19T23:19:32.484Z,3.83
2023-03-19T23:22:00.715Z,3.78
2023-03-19T23:24:30.937Z,3.75
2023-03-19T23:27:04.478Z,3.82
2023-03-19T23:29:37.167Z,3.83
2023-03-19T23:32:04.421Z,3.78
2023-03-19T23:34:33.527Z,3.68
2023-03-19T23:37:02.234Z,3.63
2023-03-19T23:39:30.913Z,3.55
2023-03-19T23:41:58.524Z,3.43
2023-03-19T23:44:28.447Z,3.32
2023-03-19T23:46:55.683Z,3.23
2023-03-19T23:49:31.835Z,3.16
2023-03-19T23:51:59.927Z,3.22
2023-03-19T23:54:31.775Z,3.28
2023-03-19T23:57:00.976Z,3.24
2023-03-19T23:59:31.071Z,3.16
